Terminal Aerodrome Forecast
Issued by NWS

Home | Current Version | Previous Version | Text Only | Print | Product List | Glossary On
Versions: 1 2 3 4 5 6 7 8 9 10 11 12 13 14 15 16 17 18
606
FTUS43 KGRB 241141
TAFMTW
TAF
KMTW 241141Z 2412/2512 01008KT P6SM SCT025
      TEMPO 2412/2413 BKN025
     FM241900 03010KT P6SM BKN040
     FM250200 VRB03KT P6SM SKC=

USA.gov is the U.S. government's official web portal to all federal, state and local government web resources and services.